sensor_id;sensor_type;location;lat;lon;timestamp;P1;durP1;ratioP1;P2;durP2;ratioP2
53521;SDS011;39398;48.382;9.802;2023-04-25T00:04:02;7.93;;;3.08;;
53521;SDS011;39398;48.382;9.802;2023-04-25T00:09:06;3.50;;;3.20;;
53521;SDS011;39398;48.382;9.802;2023-04-25T00:14:22;7.18;;;3.38;;
53521;SDS011;39398;48.382;9.802;2023-04-25T00:19:25;3.63;;;3.00;;
53521;SDS011;39398;48.382;9.802;2023-04-25T00:24:30;5.13;;;3.15;;
53521;SDS011;39398;48.382;9.802;2023-04-25T00:29:39;5.43;;;3.00;;
53521;SDS011;39398;48.382;9.802;2023-04-25T00:34:41;5.20;;;2.80;;
53521;SDS011;39398;48.382;9.802;2023-04-25T00:39:44;3.15;;;2.78;;
53521;SDS011;39398;48.382;9.802;2023-04-25T00:44:46;4.25;;;2.55;;
53521;SDS011;39398;48.382;9.802;2023-04-25T00:55:22;7.07;;;4.53;;
53521;SDS011;39398;48.382;9.802;2023-04-25T01:00:24;4.32;;;3.05;;
53521;SDS011;39398;48.382;9.802;2023-04-25T01:05:28;4.53;;;3.40;;
53521;SDS011;39398;48.382;9.802;2023-04-25T01:10:33;5.38;;;3.08;;
53521;SDS011;39398;48.382;9.802;2023-04-25T01:15:35;6.03;;;3.13;;
53521;SDS011;39398;48.382;9.802;2023-04-25T01:20:37;9.15;;;3.33;;
53521;SDS011;39398;48.382;9.802;2023-04-25T01:25:50;5.45;;;3.50;;
53521;SDS011;39398;48.382;9.802;2023-04-25T01:30:54;7.93;;;3.60;;
53521;SDS011;39398;48.382;9.802;2023-04-25T01:35:59;6.70;;;3.75;;
53521;SDS011;39398;48.382;9.802;2023-04-25T01:41:03;4.68;;;3.05;;
53521;SDS011;39398;48.382;9.802;2023-04-25T01:46:12;7.57;;;3.40;;
53521;SDS011;39398;48.382;9.802;2023-04-25T01:51:14;4.65;;;3.00;;
53521;SDS011;39398;48.382;9.802;2023-04-25T01:56:17;5.70;;;2.80;;
53521;SDS011;39398;48.382;9.802;2023-04-25T02:01:20;5.70;;;2.72;;
53521;SDS011;39398;48.382;9.802;2023-04-25T02:06:22;6.47;;;2.80;;
53521;SDS011;39398;48.382;9.802;2023-04-25T02:11:25;6.95;;;3.05;;
53521;SDS011;39398;48.382;9.802;2023-04-25T02:16:29;4.88;;;3.03;;
53521;SDS011;39398;48.382;9.802;2023-04-25T02:21:32;6.22;;;3.05;;
53521;SDS011;39398;48.382;9.802;2023-04-25T02:26:35;5.45;;;3.08;;
53521;SDS011;39398;48.382;9.802;2023-04-25T02:31:39;7.35;;;2.88;;
53521;SDS011;39398;48.382;9.802;2023-04-25T02:36:41;3.53;;;2.92;;
53521;SDS011;39398;48.382;9.802;2023-04-25T02:47:48;5.00;;;3.35;;
53521;SDS011;39398;48.382;9.802;2023-04-25T02:52:50;6.78;;;3.70;;
53521;SDS011;39398;48.382;9.802;2023-04-25T02:57:54;5.28;;;3.45;;
53521;SDS011;39398;48.382;9.802;2023-04-25T03:02:57;5.45;;;3.63;;
53521;SDS011;39398;48.382;9.802;2023-04-25T03:07:59;7.70;;;3.55;;
53521;SDS011;39398;48.382;9.802;2023-04-25T03:13:08;5.53;;;3.58;;
53521;SDS011;39398;48.382;9.802;2023-04-25T03:18:18;4.95;;;3.60;;
53521;SDS011;39398;48.382;9.802;2023-04-25T03:23:20;7.60;;;3.60;;
53521;SDS011;39398;48.382;9.802;2023-04-25T03:28:22;6.18;;;3.35;;
53521;SDS011;39398;48.382;9.802;2023-04-25T03:33:25;6.75;;;4.00;;
53521;SDS011;39398;48.382;9.802;2023-04-25T03:38:29;6.82;;;4.28;;
53521;SDS011;39398;48.382;9.802;2023-04-25T03:43:30;7.18;;;3.97;;
53521;SDS011;39398;48.382;9.802;2023-04-25T03:48:33;7.20;;;3.80;;
53521;SDS011;39398;48.382;9.802;2023-04-25T03:53:35;9.10;;;4.47;;
53521;SDS011;39398;48.382;9.802;2023-04-25T03:58:38;6.05;;;4.03;;
53521;SDS011;39398;48.382;9.802;2023-04-25T04:03:41;9.38;;;3.97;;
53521;SDS011;39398;48.382;9.802;2023-04-25T04:08:43;7.55;;;4.05;;
53521;SDS011;39398;48.382;9.802;2023-04-25T04:13:45;7.03;;;4.35;;
53521;SDS011;39398;48.382;9.802;2023-04-25T04:18:51;4.65;;;3.67;;
53521;SDS011;39398;48.382;9.802;2023-04-25T04:23:53;6.80;;;3.53;;
53521;SDS011;39398;48.382;9.802;2023-04-25T04:28:54;6.50;;;3.60;;
53521;SDS011;39398;48.382;9.802;2023-04-25T04:40:00;6.35;;;3.40;;
53521;SDS011;39398;48.382;9.802;2023-04-25T04:45:02;7.13;;;3.13;;
53521;SDS011;39398;48.382;9.802;2023-04-25T04:50:04;5.40;;;3.08;;
53521;SDS011;39398;48.382;9.802;2023-04-25T05:00:45;7.90;;;5.57;;
53521;SDS011;39398;48.382;9.802;2023-04-25T05:05:46;5.80;;;3.35;;
53521;SDS011;39398;48.382;9.802;2023-04-25T05:10:52;6.90;;;3.33;;
53521;SDS011;39398;48.382;9.802;2023-04-25T05:15:53;6.13;;;3.35;;
53521;SDS011;39398;48.382;9.802;2023-04-25T05:20:57;7.65;;;3.78;;
53521;SDS011;39398;48.382;9.802;2023-04-25T05:26:00;6.57;;;4.20;;
53521;SDS011;39398;48.382;9.802;2023-04-25T05:31:02;6.95;;;3.92;;
53521;SDS011;39398;48.382;9.802;2023-04-25T05:36:07;7.25;;;4.90;;
53521;SDS011;39398;48.382;9.802;2023-04-25T05:41:10;4.65;;;3.00;;
53521;SDS011;39398;48.382;9.802;2023-04-25T05:46:14;4.45;;;3.22;;
53521;SDS011;39398;48.382;9.802;2023-04-25T05:51:19;5.38;;;3.40;;
53521;SDS011;39398;48.382;9.802;2023-04-25T05:56:22;4.30;;;3.05;;
53521;SDS011;39398;48.382;9.802;2023-04-25T06:01:23;5.88;;;3.10;;
53521;SDS011;39398;48.382;9.802;2023-04-25T06:06:28;3.15;;;2.60;;
53521;SDS011;39398;48.382;9.802;2023-04-25T06:11:33;6.20;;;3.08;;
53521;SDS011;39398;48.382;9.802;2023-04-25T06:16:35;9.02;;;3.78;;
53521;SDS011;39398;48.382;9.802;2023-04-25T06:21:36;7.32;;;3.30;;
53521;SDS011;39398;48.382;9.802;2023-04-25T06:26:39;5.72;;;2.55;;
53521;SDS011;39398;48.382;9.802;2023-04-25T06:31:42;6.18;;;2.95;;
53521;SDS011;39398;48.382;9.802;2023-04-25T06:36:44;7.45;;;3.08;;
53521;SDS011;39398;48.382;9.802;2023-04-25T06:41:47;11.13;;;3.58;;
53521;SDS011;39398;48.382;9.802;2023-04-25T06:46:51;11.45;;;3.47;;
53521;SDS011;39398;48.382;9.802;2023-04-25T06:51:53;11.45;;;3.25;;
53521;SDS011;39398;48.382;9.802;2023-04-25T06:56:56;6.60;;;3.17;;
53521;SDS011;39398;48.382;9.802;2023-04-25T07:01:57;7.10;;;2.83;;
53521;SDS011;39398;48.382;9.802;2023-04-25T07:06:59;6.32;;;2.63;;
53521;SDS011;39398;48.382;9.802;2023-04-25T07:12:05;11.98;;;3.67;;
53521;SDS011;39398;48.382;9.802;2023-04-25T07:17:07;23.90;;;8.77;;
53521;SDS011;39398;48.382;9.802;2023-04-25T07:22:09;7.90;;;3.05;;
53521;SDS011;39398;48.382;9.802;2023-04-25T07:27:14;8.77;;;3.72;;
53521;SDS011;39398;48.382;9.802;2023-04-25T07:32:23;9.02;;;3.40;;
53521;SDS011;39398;48.382;9.802;2023-04-25T07:37:25;10.48;;;2.97;;
53521;SDS011;39398;48.382;9.802;2023-04-25T07:42:29;6.18;;;2.42;;
53521;SDS011;39398;48.382;9.802;2023-04-25T07:47:31;3.20;;;2.05;;
53521;SDS011;39398;48.382;9.802;2023-04-25T07:52:33;5.45;;;2.88;;
53521;SDS011;39398;48.382;9.802;2023-04-25T07:57:36;3.25;;;2.10;;
53521;SDS011;39398;48.382;9.802;2023-04-25T08:02:38;2.75;;;1.85;;
53521;SDS011;39398;48.382;9.802;2023-04-25T08:07:39;3.90;;;1.95;;
53521;SDS011;39398;48.382;9.802;2023-04-25T08:12:42;2.47;;;2.03;;
53521;SDS011;39398;48.382;9.802;2023-04-25T08:17:44;2.97;;;1.70;;
53521;SDS011;39398;48.382;9.802;2023-04-25T08:22:46;2.33;;;1.63;;
53521;SDS011;39398;48.382;9.802;2023-04-25T08:27:49;2.97;;;1.63;;
53521;SDS011;39398;48.382;9.802;2023-04-25T08:32:53;1.90;;;1.80;;
53521;SDS011;39398;48.382;9.802;2023-04-25T08:37:55;2.95;;;1.75;;
53521;SDS011;39398;48.382;9.802;2023-04-25T08:43:07;3.95;;;2.33;;
53521;SDS011;39398;48.382;9.802;2023-04-25T08:48:10;4.35;;;2.30;;
53521;SDS011;39398;48.382;9.802;2023-04-25T08:53:14;7.93;;;2.55;;
53521;SDS011;39398;48.382;9.802;2023-04-25T08:58:19;6.72;;;2.20;;
53521;SDS011;39398;48.382;9.802;2023-04-25T09:03:22;4.82;;;2.38;;
53521;SDS011;39398;48.382;9.802;2023-04-25T09:08:24;3.28;;;2.38;;
53521;SDS011;39398;48.382;9.802;2023-04-25T09:13:27;6.38;;;2.60;;
53521;SDS011;39398;48.382;9.802;2023-04-25T09:18:30;7.28;;;2.80;;
53521;SDS011;39398;48.382;9.802;2023-04-25T09:23:38;7.20;;;2.58;;
53521;SDS011;39398;48.382;9.802;2023-04-25T09:28:43;2.35;;;1.83;;
53521;SDS011;39398;48.382;9.802;2023-04-25T09:33:45;2.13;;;1.77;;
53521;SDS011;39398;48.382;9.802;2023-04-25T09:38:52;2.03;;;1.83;;
53521;SDS011;39398;48.382;9.802;2023-04-25T09:43:57;3.13;;;1.70;;
53521;SDS011;39398;48.382;9.802;2023-04-25T09:48:59;1.38;;;1.25;;
53521;SDS011;39398;48.382;9.802;2023-04-25T09:54:08;2.03;;;1.85;;
53521;SDS011;39398;48.382;9.802;2023-04-25T09:59:11;2.78;;;2.25;;
53521;SDS011;39398;48.382;9.802;2023-04-25T10:04:13;1.98;;;1.85;;
53521;SDS011;39398;48.382;9.802;2023-04-25T10:09:20;2.35;;;1.80;;
53521;SDS011;39398;48.382;9.802;2023-04-25T10:14:27;2.55;;;1.45;;
53521;SDS011;39398;48.382;9.802;2023-04-25T10:19:30;2.20;;;1.70;;
53521;SDS011;39398;48.382;9.802;2023-04-25T10:24:33;2.25;;;1.40;;
53521;SDS011;39398;48.382;9.802;2023-04-25T10:29:39;1.67;;;1.33;;
53521;SDS011;39398;48.382;9.802;2023-04-25T10:34:45;2.60;;;1.60;;
53521;SDS011;39398;48.382;9.802;2023-04-25T10:39:46;1.77;;;1.60;;
53521;SDS011;39398;48.382;9.802;2023-04-25T10:45:02;2.00;;;1.80;;
53521;SDS011;39398;48.382;9.802;2023-04-25T10:50:07;2.28;;;2.08;;
53521;SDS011;39398;48.382;9.802;2023-04-25T10:55:10;1.90;;;1.80;;
53521;SDS011;39398;48.382;9.802;2023-04-25T11:00:16;1.35;;;1.25;;
53521;SDS011;39398;48.382;9.802;2023-04-25T11:05:22;2.13;;;1.52;;
53521;SDS011;39398;48.382;9.802;2023-04-25T11:10:31;1.90;;;1.40;;
53521;SDS011;39398;48.382;9.802;2023-04-25T11:15:35;1.50;;;1.40;;
53521;SDS011;39398;48.382;9.802;2023-04-25T11:20:38;1.55;;;1.45;;
53521;SDS011;39398;48.382;9.802;2023-04-25T11:25:40;2.25;;;1.63;;
53521;SDS011;39398;48.382;9.802;2023-04-25T11:30:48;2.80;;;2.40;;
53521;SDS011;39398;48.382;9.802;2023-04-25T11:35:51;3.55;;;2.50;;
53521;SDS011;39398;48.382;9.802;2023-04-25T11:40:54;1.67;;;1.55;;
53521;SDS011;39398;48.382;9.802;2023-04-25T11:46:00;1.77;;;1.67;;
53521;SDS011;39398;48.382;9.802;2023-04-25T11:51:04;1.58;;;1.48;;
53521;SDS011;39398;48.382;9.802;2023-04-25T11:56:08;1.73;;;1.30;;
53521;SDS011;39398;48.382;9.802;2023-04-25T12:01:28;1.75;;;1.40;;
53521;SDS011;39398;48.382;9.802;2023-04-25T12:06:33;2.15;;;1.50;;
53521;SDS011;39398;48.382;9.802;2023-04-25T12:11:42;0.90;;;0.90;;
53521;SDS011;39398;48.382;9.802;2023-04-25T12:16:46;0.90;;;0.90;;
53521;SDS011;39398;48.382;9.802;2023-04-25T12:21:49;0.82;;;0.82;;
53521;SDS011;39398;48.382;9.802;2023-04-25T12:27:14;0.90;;;0.90;;
53521;SDS011;39398;48.382;9.802;2023-04-25T12:32:18;1.02;;;0.77;;
53521;SDS011;39398;48.382;9.802;2023-04-25T12:37:21;0.80;;;0.80;;
53521;SDS011;39398;48.382;9.802;2023-04-25T12:42:23;0.77;;;0.77;;
53521;SDS011;39398;48.382;9.802;2023-04-25T12:47:26;2.13;;;1.60;;
53521;SDS011;39398;48.382;9.802;2023-04-25T12:52:27;3.13;;;1.40;;
53521;SDS011;39398;48.382;9.802;2023-04-25T12:57:29;0.70;;;0.70;;
53521;SDS011;39398;48.382;9.802;2023-04-25T13:02:32;0.70;;;0.70;;
53521;SDS011;39398;48.382;9.802;2023-04-25T13:07:34;0.63;;;0.63;;
53521;SDS011;39398;48.382;9.802;2023-04-25T13:12:41;0.60;;;0.60;;
53521;SDS011;39398;48.382;9.802;2023-04-25T13:17:44;0.90;;;0.90;;
53521;SDS011;39398;48.382;9.802;2023-04-25T13:22:47;0.70;;;0.65;;
53521;SDS011;39398;48.382;9.802;2023-04-25T13:27:49;0.70;;;0.70;;
53521;SDS011;39398;48.382;9.802;2023-04-25T13:32:53;0.70;;;0.70;;
53521;SDS011;39398;48.382;9.802;2023-04-25T13:37:55;0.65;;;0.65;;
53521;SDS011;39398;48.382;9.802;2023-04-25T13:42:57;0.70;;;0.70;;
53521;SDS011;39398;48.382;9.802;2023-04-25T13:48:00;1.20;;;1.10;;
53521;SDS011;39398;48.382;9.802;2023-04-25T13:53:02;0.95;;;0.95;;
53521;SDS011;39398;48.382;9.802;2023-04-25T13:58:04;0.82;;;0.82;;
53521;SDS011;39398;48.382;9.802;2023-04-25T14:03:10;1.10;;;1.10;;
53521;SDS011;39398;48.382;9.802;2023-04-25T14:08:17;1.55;;;1.30;;
53521;SDS011;39398;48.382;9.802;2023-04-25T14:13:19;1.50;;;1.40;;
53521;SDS011;39398;48.382;9.802;2023-04-25T14:18:25;1.42;;;1.33;;
53521;SDS011;39398;48.382;9.802;2023-04-25T14:23:29;1.08;;;1.08;;
53521;SDS011;39398;48.382;9.802;2023-04-25T14:28:30;2.22;;;1.40;;
53521;SDS011;39398;48.382;9.802;2023-04-25T14:33:33;3.22;;;2.92;;
53521;SDS011;39398;48.382;9.802;2023-04-25T14:38:35;4.60;;;3.80;;
53521;SDS011;39398;48.382;9.802;2023-04-25T14:43:37;6.18;;;4.30;;
53521;SDS011;39398;48.382;9.802;2023-04-25T14:48:43;7.30;;;4.80;;
53521;SDS011;39398;48.382;9.802;2023-04-25T14:53:44;4.40;;;3.42;;
53521;SDS011;39398;48.382;9.802;2023-04-25T14:58:46;6.45;;;3.92;;
53521;SDS011;39398;48.382;9.802;2023-04-25T15:03:49;3.50;;;2.70;;
53521;SDS011;39398;48.382;9.802;2023-04-25T15:08:53;6.30;;;3.63;;
53521;SDS011;39398;48.382;9.802;2023-04-25T15:13:55;5.30;;;3.75;;
53521;SDS011;39398;48.382;9.802;2023-04-25T15:18:58;5.85;;;3.45;;
53521;SDS011;39398;48.382;9.802;2023-04-25T15:24:07;4.07;;;2.55;;
53521;SDS011;39398;48.382;9.802;2023-04-25T15:29:11;4.47;;;3.25;;
53521;SDS011;39398;48.382;9.802;2023-04-25T15:34:14;3.08;;;2.50;;
53521;SDS011;39398;48.382;9.802;2023-04-25T15:39:16;3.90;;;2.60;;
53521;SDS011;39398;48.382;9.802;2023-04-25T15:44:17;4.15;;;2.60;;
53521;SDS011;39398;48.382;9.802;2023-04-25T15:49:22;3.58;;;2.58;;
53521;SDS011;39398;48.382;9.802;2023-04-25T15:54:23;6.88;;;3.28;;
53521;SDS011;39398;48.382;9.802;2023-04-25T15:59:32;4.47;;;3.10;;
53521;SDS011;39398;48.382;9.802;2023-04-25T16:04:40;4.53;;;3.03;;
53521;SDS011;39398;48.382;9.802;2023-04-25T16:09:42;3.40;;;3.05;;
53521;SDS011;39398;48.382;9.802;2023-04-25T16:14:43;4.47;;;3.50;;
53521;SDS011;39398;48.382;9.802;2023-04-25T16:19:46;8.35;;;3.50;;
53521;SDS011;39398;48.382;9.802;2023-04-25T16:24:48;6.60;;;3.92;;
53521;SDS011;39398;48.382;9.802;2023-04-25T16:29:50;5.03;;;3.13;;
53521;SDS011;39398;48.382;9.802;2023-04-25T16:34:54;4.85;;;3.95;;
53521;SDS011;39398;48.382;9.802;2023-04-25T16:39:59;4.70;;;3.33;;
53521;SDS011;39398;48.382;9.802;2023-04-25T16:45:00;5.88;;;3.67;;
53521;SDS011;39398;48.382;9.802;2023-04-25T16:50:04;6.82;;;4.32;;
53521;SDS011;39398;48.382;9.802;2023-04-25T16:55:07;5.25;;;3.78;;
53521;SDS011;39398;48.382;9.802;2023-04-25T17:00:09;5.47;;;3.92;;
53521;SDS011;39398;48.382;9.802;2023-04-25T17:05:13;7.57;;;4.47;;
53521;SDS011;39398;48.382;9.802;2023-04-25T17:10:15;4.68;;;3.65;;
53521;SDS011;39398;48.382;9.802;2023-04-25T17:15:17;8.68;;;3.10;;
53521;SDS011;39398;48.382;9.802;2023-04-25T17:20:20;9.07;;;4.40;;
53521;SDS011;39398;48.382;9.802;2023-04-25T17:25:30;5.57;;;4.35;;
53521;SDS011;39398;48.382;9.802;2023-04-25T17:30:32;5.55;;;3.88;;
53521;SDS011;39398;48.382;9.802;2023-04-25T17:35:38;7.28;;;4.20;;
53521;SDS011;39398;48.382;9.802;2023-04-25T17:40:39;4.80;;;4.30;;
53521;SDS011;39398;48.382;9.802;2023-04-25T17:45:41;6.43;;;5.20;;
53521;SDS011;39398;48.382;9.802;2023-04-25T17:50:46;5.53;;;4.32;;
53521;SDS011;39398;48.382;9.802;2023-04-25T17:55:48;7.50;;;5.35;;
53521;SDS011;39398;48.382;9.802;2023-04-25T18:00:50;8.88;;;5.53;;
53521;SDS011;39398;48.382;9.802;2023-04-25T18:05:53;8.43;;;5.85;;
53521;SDS011;39398;48.382;9.802;2023-04-25T18:10:55;8.02;;;5.47;;
53521;SDS011;39398;48.382;9.802;2023-04-25T18:15:56;8.38;;;6.00;;
53521;SDS011;39398;48.382;9.802;2023-04-25T18:21:01;8.15;;;5.65;;
53521;SDS011;39398;48.382;9.802;2023-04-25T18:26:03;8.25;;;5.65;;
53521;SDS011;39398;48.382;9.802;2023-04-25T18:31:08;8.32;;;6.10;;
53521;SDS011;39398;48.382;9.802;2023-04-25T18:36:14;8.68;;;6.07;;
53521;SDS011;39398;48.382;9.802;2023-04-25T18:41:15;4.72;;;3.42;;
53521;SDS011;39398;48.382;9.802;2023-04-25T18:46:21;7.65;;;4.30;;
53521;SDS011;39398;48.382;9.802;2023-04-25T18:51:27;4.97;;;3.72;;
53521;SDS011;39398;48.382;9.802;2023-04-25T18:56:36;4.45;;;3.00;;
53521;SDS011;39398;48.382;9.802;2023-04-25T19:01:38;7.80;;;3.97;;
53521;SDS011;39398;48.382;9.802;2023-04-25T19:06:41;9.48;;;6.55;;
53521;SDS011;39398;48.382;9.802;2023-04-25T19:11:43;7.47;;;6.15;;
53521;SDS011;39398;48.382;9.802;2023-04-25T19:16:44;7.15;;;5.00;;
53521;SDS011;39398;48.382;9.802;2023-04-25T19:21:50;7.55;;;5.80;;
53521;SDS011;39398;48.382;9.802;2023-04-25T19:26:52;7.75;;;4.88;;
53521;SDS011;39398;48.382;9.802;2023-04-25T19:31:53;7.00;;;5.13;;
53521;SDS011;39398;48.382;9.802;2023-04-25T19:37:04;6.45;;;3.65;;
53521;SDS011;39398;48.382;9.802;2023-04-25T19:42:05;8.38;;;6.20;;
53521;SDS011;39398;48.382;9.802;2023-04-25T19:47:09;9.32;;;6.35;;
53521;SDS011;39398;48.382;9.802;2023-04-25T19:52:14;10.95;;;6.18;;
53521;SDS011;39398;48.382;9.802;2023-04-25T19:57:16;7.38;;;6.10;;
53521;SDS011;39398;48.382;9.802;2023-04-25T20:02:23;10.90;;;6.93;;
53521;SDS011;39398;48.382;9.802;2023-04-25T20:07:33;8.52;;;6.05;;
53521;SDS011;39398;48.382;9.802;2023-04-25T20:12:35;9.27;;;6.32;;
53521;SDS011;39398;48.382;9.802;2023-04-25T20:17:37;9.52;;;6.68;;
53521;SDS011;39398;48.382;9.802;2023-04-25T20:22:41;10.88;;;7.18;;
53521;SDS011;39398;48.382;9.802;2023-04-25T20:27:42;13.57;;;7.32;;
53521;SDS011;39398;48.382;9.802;2023-04-25T20:32:46;9.45;;;6.65;;
53521;SDS011;39398;48.382;9.802;2023-04-25T20:37:51;12.25;;;7.68;;
53521;SDS011;39398;48.382;9.802;2023-04-25T20:42:52;13.52;;;9.20;;
53521;SDS011;39398;48.382;9.802;2023-04-25T20:47:54;16.73;;;10.77;;
53521;SDS011;39398;48.382;9.802;2023-04-25T20:52:58;19.20;;;11.38;;
53521;SDS011;39398;48.382;9.802;2023-04-25T20:58:00;18.90;;;11.68;;
53521;SDS011;39398;48.382;9.802;2023-04-25T21:03:02;14.95;;;9.40;;
53521;SDS011;39398;48.382;9.802;2023-04-25T21:08:05;11.63;;;8.23;;
53521;SDS011;39398;48.382;9.802;2023-04-25T21:13:07;10.93;;;8.00;;
53521;SDS011;39398;48.382;9.802;2023-04-25T21:18:09;8.93;;;6.18;;
53521;SDS011;39398;48.382;9.802;2023-04-25T21:23:14;8.80;;;5.95;;
53521;SDS011;39398;48.382;9.802;2023-04-25T21:28:17;7.00;;;5.82;;
53521;SDS011;39398;48.382;9.802;2023-04-25T21:33:18;6.32;;;5.15;;
53521;SDS011;39398;48.382;9.802;2023-04-25T21:38:22;7.10;;;5.53;;
53521;SDS011;39398;48.382;9.802;2023-04-25T21:43:25;8.40;;;5.93;;
53521;SDS011;39398;48.382;9.802;2023-04-25T21:48:34;8.50;;;6.78;;
53521;SDS011;39398;48.382;9.802;2023-04-25T21:53:36;11.50;;;8.15;;
53521;SDS011;39398;48.382;9.802;2023-04-25T21:58:38;13.93;;;9.15;;
53521;SDS011;39398;48.382;9.802;2023-04-25T22:03:42;14.23;;;10.15;;
53521;SDS011;39398;48.382;9.802;2023-04-25T22:08:46;18.73;;;12.18;;
53521;SDS011;39398;48.382;9.802;2023-04-25T22:13:48;16.38;;;11.85;;
53521;SDS011;39398;48.382;9.802;2023-04-25T22:18:50;24.15;;;14.02;;
53521;SDS011;39398;48.382;9.802;2023-04-25T22:23:53;22.10;;;14.85;;
53521;SDS011;39398;48.382;9.802;2023-04-25T22:28:55;24.77;;;14.85;;
53521;SDS011;39398;48.382;9.802;2023-04-25T22:33:59;22.17;;;14.60;;
53521;SDS011;39398;48.382;9.802;2023-04-25T22:39:02;21.98;;;14.73;;
53521;SDS011;39398;48.382;9.802;2023-04-25T22:44:06;21.38;;;13.63;;
53521;SDS011;39398;48.382;9.802;2023-04-25T22:49:08;23.42;;;14.13;;
53521;SDS011;39398;48.382;9.802;2023-04-25T22:54:11;28.85;;;15.55;;
53521;SDS011;39398;48.382;9.802;2023-04-25T22:59:13;22.33;;;12.75;;
53521;SDS011;39398;48.382;9.802;2023-04-25T23:04:14;14.82;;;9.05;;
53521;SDS011;39398;48.382;9.802;2023-04-25T23:09:19;22.42;;;12.32;;
53521;SDS011;39398;48.382;9.802;2023-04-25T23:14:21;24.35;;;13.52;;
53521;SDS011;39398;48.382;9.802;2023-04-25T23:19:23;18.38;;;11.05;;
53521;SDS011;39398;48.382;9.802;2023-04-25T23:24:26;21.15;;;10.77;;
53521;SDS011;39398;48.382;9.802;2023-04-25T23:29:27;15.57;;;10.00;;
53521;SDS011;39398;48.382;9.802;2023-04-25T23:34:29;21.73;;;11.98;;
53521;SDS011;39398;48.382;9.802;2023-04-25T23:39:35;21.75;;;12.05;;
53521;SDS011;39398;48.382;9.802;2023-04-25T23:44:36;24.65;;;13.05;;
53521;SDS011;39398;48.382;9.802;2023-04-25T23:49:38;21.08;;;13.77;;
53521;SDS011;39398;48.382;9.802;2023-04-25T23:54:41;24.75;;;12.90;;
53521;SDS011;39398;48.382;9.802;2023-04-25T23:59:43;20.83;;;11.77;;
